sensor_id;sensor_type;location;lat;lon;timestamp;P1;durP1;ratioP1;P2;durP2;ratioP2
74457;SDS011;62896;51.032;3.712;2023-09-12T00:02:00;21.2;;;16.8;;
74457;SDS011;62896;51.032;3.712;2023-09-12T00:05:20;21.2;;;16.8;;
74457;SDS011;62896;51.032;3.712;2023-09-12T00:08:40;21.2;;;16.8;;
74457;SDS011;62896;51.032;3.712;2023-09-12T00:12:00;21.2;;;16.8;;
74457;SDS011;62896;51.032;3.712;2023-09-12T00:15:21;21.2;;;16.8;;
74457;SDS011;62896;51.032;3.712;2023-09-12T00:18:40;21.2;;;16.8;;
74457;SDS011;62896;51.032;3.712;2023-09-12T00:22:00;17.8;;;14.3;;
74457;SDS011;62896;51.032;3.712;2023-09-12T00:25:20;17.8;;;14.3;;
74457;SDS011;62896;51.032;3.712;2023-09-12T00:28:40;17.8;;;14.3;;
74457;SDS011;62896;51.032;3.712;2023-09-12T00:32:00;17.8;;;14.3;;
74457;SDS011;62896;51.032;3.712;2023-09-12T00:35:20;17.8;;;14.3;;
74457;SDS011;62896;51.032;3.712;2023-09-12T00:38:40;17.8;;;14.3;;
74457;SDS011;62896;51.032;3.712;2023-09-12T00:42:00;17.8;;;14.3;;
74457;SDS011;62896;51.032;3.712;2023-09-12T00:45:20;21.4;;;16.2;;
74457;SDS011;62896;51.032;3.712;2023-09-12T00:48:40;21.4;;;16.2;;
74457;SDS011;62896;51.032;3.712;2023-09-12T00:52:00;21.4;;;16.2;;
74457;SDS011;62896;51.032;3.712;2023-09-12T00:55:20;21.4;;;16.2;;
74457;SDS011;62896;51.032;3.712;2023-09-12T00:58:40;21.4;;;16.2;;
74457;SDS011;62896;51.032;3.712;2023-09-12T01:02:00;21.4;;;16.2;;
74457;SDS011;62896;51.032;3.712;2023-09-12T01:05:21;21.4;;;16.2;;
74457;SDS011;62896;51.032;3.712;2023-09-12T01:08:40;21.4;;;16.2;;
74457;SDS011;62896;51.032;3.712;2023-09-12T01:12:00;21;;;15.1;;
74457;SDS011;62896;51.032;3.712;2023-09-12T01:15:20;21;;;15.1;;
74457;SDS011;62896;51.032;3.712;2023-09-12T01:18:40;21;;;15.1;;
74457;SDS011;62896;51.032;3.712;2023-09-12T01:22:21;21;;;15.1;;
74457;SDS011;62896;51.032;3.712;2023-09-12T01:25:27;21;;;15.1;;
74457;SDS011;62896;51.032;3.712;2023-09-12T01:28:40;21;;;15.1;;
74457;SDS011;62896;51.032;3.712;2023-09-12T01:32:00;21;;;15.1;;
74457;SDS011;62896;51.032;3.712;2023-09-12T01:35:21;16.6;;;13.3;;
74457;SDS011;62896;51.032;3.712;2023-09-12T01:38:41;16.6;;;13.3;;
74457;SDS011;62896;51.032;3.712;2023-09-12T01:42:00;16.6;;;13.3;;
74457;SDS011;62896;51.032;3.712;2023-09-12T01:45:20;16.6;;;13.3;;
74457;SDS011;62896;51.032;3.712;2023-09-12T01:48:40;16.6;;;13.3;;
74457;SDS011;62896;51.032;3.712;2023-09-12T01:52:00;16.6;;;13.3;;
74457;SDS011;62896;51.032;3.712;2023-09-12T01:55:20;16.6;;;13.3;;
74457;SDS011;62896;51.032;3.712;2023-09-12T01:58:40;16.6;;;13.3;;
74457;SDS011;62896;51.032;3.712;2023-09-12T02:02:01;18.9;;;14.6;;
74457;SDS011;62896;51.032;3.712;2023-09-12T02:05:21;18.9;;;14.6;;
74457;SDS011;62896;51.032;3.712;2023-09-12T02:08:40;18.9;;;14.6;;
74457;SDS011;62896;51.032;3.712;2023-09-12T02:12:00;18.9;;;14.6;;
74457;SDS011;62896;51.032;3.712;2023-09-12T02:15:20;18.9;;;14.6;;
74457;SDS011;62896;51.032;3.712;2023-09-12T02:18:41;18.9;;;14.6;;
74457;SDS011;62896;51.032;3.712;2023-09-12T02:22:00;18.9;;;14.6;;
74457;SDS011;62896;51.032;3.712;2023-09-12T02:25:20;21.1;;;14.7;;
74457;SDS011;62896;51.032;3.712;2023-09-12T02:28:40;21.1;;;14.7;;
74457;SDS011;62896;51.032;3.712;2023-09-12T02:32:00;21.1;;;14.7;;
74457;SDS011;62896;51.032;3.712;2023-09-12T02:35:21;21.1;;;14.7;;
74457;SDS011;62896;51.032;3.712;2023-09-12T02:38:41;21.1;;;14.7;;
74457;SDS011;62896;51.032;3.712;2023-09-12T02:42:01;21.1;;;14.7;;
74457;SDS011;62896;51.032;3.712;2023-09-12T02:45:21;21.1;;;14.7;;
74457;SDS011;62896;51.032;3.712;2023-09-12T02:48:41;21.1;;;14.7;;
74457;SDS011;62896;51.032;3.712;2023-09-12T02:52:01;22.2;;;14.7;;
74457;SDS011;62896;51.032;3.712;2023-09-12T02:55:21;22.2;;;14.7;;
74457;SDS011;62896;51.032;3.712;2023-09-12T02:58:41;22.2;;;14.7;;
74457;SDS011;62896;51.032;3.712;2023-09-12T03:02:01;22.2;;;14.7;;
74457;SDS011;62896;51.032;3.712;2023-09-12T03:05:21;22.2;;;14.7;;
74457;SDS011;62896;51.032;3.712;2023-09-12T03:08:41;22.2;;;14.7;;
74457;SDS011;62896;51.032;3.712;2023-09-12T03:12:01;22.2;;;14.7;;
74457;SDS011;62896;51.032;3.712;2023-09-12T03:15:21;20.6;;;15.6;;
74457;SDS011;62896;51.032;3.712;2023-09-12T03:18:41;20.6;;;15.6;;
74457;SDS011;62896;51.032;3.712;2023-09-12T03:22:01;20.6;;;15.6;;
74457;SDS011;62896;51.032;3.712;2023-09-12T03:25:21;20.6;;;15.6;;
74457;SDS011;62896;51.032;3.712;2023-09-12T03:28:41;20.6;;;15.6;;
74457;SDS011;62896;51.032;3.712;2023-09-12T03:32:01;20.6;;;15.6;;
74457;SDS011;62896;51.032;3.712;2023-09-12T03:35:21;20.6;;;15.6;;
74457;SDS011;62896;51.032;3.712;2023-09-12T03:38:41;20.6;;;15.6;;
74457;SDS011;62896;51.032;3.712;2023-09-12T03:42:01;18;;;14.1;;
74457;SDS011;62896;51.032;3.712;2023-09-12T03:45:21;18;;;14.1;;
74457;SDS011;62896;51.032;3.712;2023-09-12T03:48:41;18;;;14.1;;
74457;SDS011;62896;51.032;3.712;2023-09-12T03:52:01;18;;;14.1;;
74457;SDS011;62896;51.032;3.712;2023-09-12T03:55:21;18;;;14.1;;
74457;SDS011;62896;51.032;3.712;2023-09-12T03:58:41;18;;;14.1;;
74457;SDS011;62896;51.032;3.712;2023-09-12T04:02:01;18;;;14.1;;
74457;SDS011;62896;51.032;3.712;2023-09-12T04:05:21;25.6;;;17.5;;
74457;SDS011;62896;51.032;3.712;2023-09-12T04:08:41;25.6;;;17.5;;
74457;SDS011;62896;51.032;3.712;2023-09-12T04:12:01;25.6;;;17.5;;
74457;SDS011;62896;51.032;3.712;2023-09-12T04:15:21;25.6;;;17.5;;
74457;SDS011;62896;51.032;3.712;2023-09-12T04:18:41;25.6;;;17.5;;
74457;SDS011;62896;51.032;3.712;2023-09-12T04:22:01;25.6;;;17.5;;
74457;SDS011;62896;51.032;3.712;2023-09-12T04:25:21;25.6;;;17.5;;
74457;SDS011;62896;51.032;3.712;2023-09-12T04:28:41;25.6;;;17.5;;
74457;SDS011;62896;51.032;3.712;2023-09-12T04:32:01;22.9;;;16.9;;
74457;SDS011;62896;51.032;3.712;2023-09-12T04:35:21;22.9;;;16.9;;
74457;SDS011;62896;51.032;3.712;2023-09-12T04:38:41;22.9;;;16.9;;
74457;SDS011;62896;51.032;3.712;2023-09-12T04:42:01;22.9;;;16.9;;
74457;SDS011;62896;51.032;3.712;2023-09-12T04:45:21;22.9;;;16.9;;
74457;SDS011;62896;51.032;3.712;2023-09-12T04:48:41;22.9;;;16.9;;
74457;SDS011;62896;51.032;3.712;2023-09-12T04:52:01;22.9;;;16.9;;
74457;SDS011;62896;51.032;3.712;2023-09-12T04:55:21;24.9;;;17.7;;
74457;SDS011;62896;51.032;3.712;2023-09-12T04:58:41;24.9;;;17.7;;
74457;SDS011;62896;51.032;3.712;2023-09-12T05:02:01;24.9;;;17.7;;
74457;SDS011;62896;51.032;3.712;2023-09-12T05:05:21;24.9;;;17.7;;
74457;SDS011;62896;51.032;3.712;2023-09-12T05:08:41;24.9;;;17.7;;
74457;SDS011;62896;51.032;3.712;2023-09-12T05:12:01;24.9;;;17.7;;
74457;SDS011;62896;51.032;3.712;2023-09-12T05:15:21;24.9;;;17.7;;
74457;SDS011;62896;51.032;3.712;2023-09-12T05:18:41;24.9;;;17.7;;
74457;SDS011;62896;51.032;3.712;2023-09-12T05:22:01;42.6;;;23.7;;
74457;SDS011;62896;51.032;3.712;2023-09-12T05:25:21;42.6;;;23.7;;
74457;SDS011;62896;51.032;3.712;2023-09-12T05:28:41;42.6;;;23.7;;
74457;SDS011;62896;51.032;3.712;2023-09-12T05:32:01;42.6;;;23.7;;
74457;SDS011;62896;51.032;3.712;2023-09-12T05:35:21;42.6;;;23.7;;
74457;SDS011;62896;51.032;3.712;2023-09-12T05:38:41;42.6;;;23.7;;
74457;SDS011;62896;51.032;3.712;2023-09-12T05:42:01;42.6;;;23.7;;
74457;SDS011;62896;51.032;3.712;2023-09-12T05:45:21;49.3;;;26.3;;
74457;SDS011;62896;51.032;3.712;2023-09-12T05:48:41;49.3;;;26.3;;
74457;SDS011;62896;51.032;3.712;2023-09-12T05:52:01;49.3;;;26.3;;
74457;SDS011;62896;51.032;3.712;2023-09-12T05:55:21;49.3;;;26.3;;
74457;SDS011;62896;51.032;3.712;2023-09-12T05:58:41;49.3;;;26.3;;
74457;SDS011;62896;51.032;3.712;2023-09-12T06:02:01;49.3;;;26.3;;
74457;SDS011;62896;51.032;3.712;2023-09-12T06:05:21;49.3;;;26.3;;
74457;SDS011;62896;51.032;3.712;2023-09-12T06:08:41;49.3;;;26.3;;
74457;SDS011;62896;51.032;3.712;2023-09-12T06:12:01;38;;;22.3;;
74457;SDS011;62896;51.032;3.712;2023-09-12T06:15:21;38;;;22.3;;
74457;SDS011;62896;51.032;3.712;2023-09-12T06:18:41;38;;;22.3;;
74457;SDS011;62896;51.032;3.712;2023-09-12T06:22:01;38;;;22.3;;
74457;SDS011;62896;51.032;3.712;2023-09-12T06:25:21;38;;;22.3;;
74457;SDS011;62896;51.032;3.712;2023-09-12T06:28:41;38;;;22.3;;
74457;SDS011;62896;51.032;3.712;2023-09-12T06:32:01;38;;;22.3;;
74457;SDS011;62896;51.032;3.712;2023-09-12T07:11:25;38.6;;;22.7;;
74457;SDS011;62896;51.032;3.712;2023-09-12T07:14:45;38.6;;;22.7;;
74457;SDS011;62896;51.032;3.712;2023-09-12T07:18:05;38.6;;;22.7;;
74457;SDS011;62896;51.032;3.712;2023-09-12T07:21:25;38.6;;;22.7;;
74457;SDS011;62896;51.032;3.712;2023-09-12T07:24:45;38.6;;;22.7;;
74457;SDS011;62896;51.032;3.712;2023-09-12T07:28:05;38.6;;;22.7;;
74457;SDS011;62896;51.032;3.712;2023-09-12T07:31:25;38.6;;;22.7;;
74457;SDS011;62896;51.032;3.712;2023-09-12T07:34:45;43.9;;;24.4;;
74457;SDS011;62896;51.032;3.712;2023-09-12T07:38:05;43.9;;;24.4;;
74457;SDS011;62896;51.032;3.712;2023-09-12T07:41:25;43.9;;;24.4;;
74457;SDS011;62896;51.032;3.712;2023-09-12T07:44:45;43.9;;;24.4;;
74457;SDS011;62896;51.032;3.712;2023-09-12T07:48:05;43.9;;;24.4;;
74457;SDS011;62896;51.032;3.712;2023-09-12T07:51:25;43.9;;;24.4;;
74457;SDS011;62896;51.032;3.712;2023-09-12T07:54:45;43.9;;;24.4;;
74457;SDS011;62896;51.032;3.712;2023-09-12T07:58:05;43.9;;;24.4;;
74457;SDS011;62896;51.032;3.712;2023-09-12T08:01:25;38.4;;;23.6;;
74457;SDS011;62896;51.032;3.712;2023-09-12T08:04:45;38.4;;;23.6;;
74457;SDS011;62896;51.032;3.712;2023-09-12T08:08:05;38.4;;;23.6;;
74457;SDS011;62896;51.032;3.712;2023-09-12T08:11:25;38.4;;;23.6;;
74457;SDS011;62896;51.032;3.712;2023-09-12T08:14:45;38.4;;;23.6;;
74457;SDS011;62896;51.032;3.712;2023-09-12T08:18:05;38.4;;;23.6;;
74457;SDS011;62896;51.032;3.712;2023-09-12T08:21:25;38.4;;;23.6;;
74457;SDS011;62896;51.032;3.712;2023-09-12T08:24:45;34.8;;;23.6;;
74457;SDS011;62896;51.032;3.712;2023-09-12T08:28:05;34.8;;;23.6;;
74457;SDS011;62896;51.032;3.712;2023-09-12T08:31:25;34.8;;;23.6;;
74457;SDS011;62896;51.032;3.712;2023-09-12T08:34:45;34.8;;;23.6;;
74457;SDS011;62896;51.032;3.712;2023-09-12T08:38:05;34.8;;;23.6;;
74457;SDS011;62896;51.032;3.712;2023-09-12T08:41:25;34.8;;;23.6;;
74457;SDS011;62896;51.032;3.712;2023-09-12T08:44:45;34.8;;;23.6;;
74457;SDS011;62896;51.032;3.712;2023-09-12T08:48:05;34.8;;;23.6;;
74457;SDS011;62896;51.032;3.712;2023-09-12T08:51:25;36.9;;;25.4;;
74457;SDS011;62896;51.032;3.712;2023-09-12T08:54:45;36.9;;;25.4;;
74457;SDS011;62896;51.032;3.712;2023-09-12T08:58:05;36.9;;;25.4;;
74457;SDS011;62896;51.032;3.712;2023-09-12T09:01:25;36.9;;;25.4;;
74457;SDS011;62896;51.032;3.712;2023-09-12T09:04:45;36.9;;;25.4;;
74457;SDS011;62896;51.032;3.712;2023-09-12T09:08:05;36.9;;;25.4;;
74457;SDS011;62896;51.032;3.712;2023-09-12T09:11:25;36.9;;;25.4;;
74457;SDS011;62896;51.032;3.712;2023-09-12T09:14:45;42.1;;;24.9;;
74457;SDS011;62896;51.032;3.712;2023-09-12T09:18:05;42.1;;;24.9;;
74457;SDS011;62896;51.032;3.712;2023-09-12T09:21:25;42.1;;;24.9;;
74457;SDS011;62896;51.032;3.712;2023-09-12T09:24:45;42.1;;;24.9;;
74457;SDS011;62896;51.032;3.712;2023-09-12T09:28:05;42.1;;;24.9;;
74457;SDS011;62896;51.032;3.712;2023-09-12T09:31:25;42.1;;;24.9;;
74457;SDS011;62896;51.032;3.712;2023-09-12T09:34:45;42.1;;;24.9;;
74457;SDS011;62896;51.032;3.712;2023-09-12T09:38:05;42.1;;;24.9;;
74457;SDS011;62896;51.032;3.712;2023-09-12T09:41:25;34.7;;;21.1;;
74457;SDS011;62896;51.032;3.712;2023-09-12T09:44:45;34.7;;;21.1;;
74457;SDS011;62896;51.032;3.712;2023-09-12T09:48:05;34.7;;;21.1;;
74457;SDS011;62896;51.032;3.712;2023-09-12T09:51:25;34.7;;;21.1;;
74457;SDS011;62896;51.032;3.712;2023-09-12T09:54:45;34.7;;;21.1;;
74457;SDS011;62896;51.032;3.712;2023-09-12T09:58:05;34.7;;;21.1;;
74457;SDS011;62896;51.032;3.712;2023-09-12T10:01:26;34.7;;;21.1;;
74457;SDS011;62896;51.032;3.712;2023-09-12T10:04:45;32;;;21.1;;
74457;SDS011;62896;51.032;3.712;2023-09-12T10:08:06;32;;;21.1;;
74457;SDS011;62896;51.032;3.712;2023-09-12T10:11:27;32;;;21.1;;
74457;SDS011;62896;51.032;3.712;2023-09-12T10:14:45;32;;;21.1;;
74457;SDS011;62896;51.032;3.712;2023-09-12T10:18:08;32;;;21.1;;
74457;SDS011;62896;51.032;3.712;2023-09-12T10:21:27;32;;;21.1;;
74457;SDS011;62896;51.032;3.712;2023-09-12T10:24:45;32;;;21.1;;
74457;SDS011;62896;51.032;3.712;2023-09-12T10:28:05;32;;;21.1;;
74457;SDS011;62896;51.032;3.712;2023-09-12T10:31:25;31;;;22;;
74457;SDS011;62896;51.032;3.712;2023-09-12T10:34:45;31;;;22;;
74457;SDS011;62896;51.032;3.712;2023-09-12T10:38:05;31;;;22;;
74457;SDS011;62896;51.032;3.712;2023-09-12T10:41:25;31;;;22;;
74457;SDS011;62896;51.032;3.712;2023-09-12T10:44:45;31;;;22;;
74457;SDS011;62896;51.032;3.712;2023-09-12T10:48:05;31;;;22;;
74457;SDS011;62896;51.032;3.712;2023-09-12T10:51:25;31;;;22;;
74457;SDS011;62896;51.032;3.712;2023-09-12T10:54:45;33.4;;;21.2;;
74457;SDS011;62896;51.032;3.712;2023-09-12T10:58:05;33.4;;;21.2;;
74457;SDS011;62896;51.032;3.712;2023-09-12T11:01:25;33.4;;;21.2;;
74457;SDS011;62896;51.032;3.712;2023-09-12T11:04:45;33.4;;;21.2;;
74457;SDS011;62896;51.032;3.712;2023-09-12T11:08:05;33.4;;;21.2;;
74457;SDS011;62896;51.032;3.712;2023-09-12T11:11:25;33.4;;;21.2;;
74457;SDS011;62896;51.032;3.712;2023-09-12T11:15:16;33.4;;;21.2;;
74457;SDS011;62896;51.032;3.712;2023-09-12T11:18:05;33.4;;;21.2;;
74457;SDS011;62896;51.032;3.712;2023-09-12T11:21:31;24.7;;;18.7;;
74457;SDS011;62896;51.032;3.712;2023-09-12T11:24:45;24.7;;;18.7;;
74457;SDS011;62896;51.032;3.712;2023-09-12T11:28:05;24.7;;;18.7;;
74457;SDS011;62896;51.032;3.712;2023-09-12T11:34:45;24.7;;;18.7;;
74457;SDS011;62896;51.032;3.712;2023-09-12T11:38:09;24.7;;;18.7;;
74457;SDS011;62896;51.032;3.712;2023-09-12T11:41:40;24.7;;;18.7;;
74457;SDS011;62896;51.032;3.712;2023-09-12T11:44:45;24.6;;;17.9;;
74457;SDS011;62896;51.032;3.712;2023-09-12T11:48:05;24.6;;;17.9;;
74457;SDS011;62896;51.032;3.712;2023-09-12T11:51:25;24.6;;;17.9;;
74457;SDS011;62896;51.032;3.712;2023-09-12T11:54:45;24.6;;;17.9;;
74457;SDS011;62896;51.032;3.712;2023-09-12T11:58:05;24.6;;;17.9;;
74457;SDS011;62896;51.032;3.712;2023-09-12T12:01:25;24.6;;;17.9;;
74457;SDS011;62896;51.032;3.712;2023-09-12T12:04:45;24.6;;;17.9;;
74457;SDS011;62896;51.032;3.712;2023-09-12T12:08:05;24.6;;;17.9;;
74457;SDS011;62896;51.032;3.712;2023-09-12T12:11:27;29.6;;;20.6;;
74457;SDS011;62896;51.032;3.712;2023-09-12T12:14:45;29.6;;;20.6;;
74457;SDS011;62896;51.032;3.712;2023-09-12T12:18:05;29.6;;;20.6;;
74457;SDS011;62896;51.032;3.712;2023-09-12T12:21:25;29.6;;;20.6;;
74457;SDS011;62896;51.032;3.712;2023-09-12T12:24:45;29.6;;;20.6;;
74457;SDS011;62896;51.032;3.712;2023-09-12T12:28:05;29.6;;;20.6;;
74457;SDS011;62896;51.032;3.712;2023-09-12T12:31:25;29.6;;;20.6;;
74457;SDS011;62896;51.032;3.712;2023-09-12T12:34:47;25.3;;;19;;
74457;SDS011;62896;51.032;3.712;2023-09-12T12:38:05;25.3;;;19;;
74457;SDS011;62896;51.032;3.712;2023-09-12T12:41:25;25.3;;;19;;
74457;SDS011;62896;51.032;3.712;2023-09-12T12:44:45;25.3;;;19;;
74457;SDS011;62896;51.032;3.712;2023-09-12T12:48:05;25.3;;;19;;
74457;SDS011;62896;51.032;3.712;2023-09-12T12:51:25;25.3;;;19;;
74457;SDS011;62896;51.032;3.712;2023-09-12T12:54:45;25.3;;;19;;
74457;SDS011;62896;51.032;3.712;2023-09-12T12:58:05;25.3;;;19;;
74457;SDS011;62896;51.032;3.712;2023-09-12T13:01:25;22;;;16.8;;
74457;SDS011;62896;51.032;3.712;2023-09-12T13:04:45;22;;;16.8;;
74457;SDS011;62896;51.032;3.712;2023-09-12T13:08:05;22;;;16.8;;
74457;SDS011;62896;51.032;3.712;2023-09-12T13:11:25;22;;;16.8;;
74457;SDS011;62896;51.032;3.712;2023-09-12T13:14:45;22;;;16.8;;
74457;SDS011;62896;51.032;3.712;2023-09-12T13:18:05;22;;;16.8;;
74457;SDS011;62896;51.032;3.712;2023-09-12T13:21:25;22;;;16.8;;
74457;SDS011;62896;51.032;3.712;2023-09-12T13:24:45;22;;;17.8;;
74457;SDS011;62896;51.032;3.712;2023-09-12T13:28:05;22;;;17.8;;
74457;SDS011;62896;51.032;3.712;2023-09-12T13:31:25;22;;;17.8;;
74457;SDS011;62896;51.032;3.712;2023-09-12T13:34:45;22;;;17.8;;
74457;SDS011;62896;51.032;3.712;2023-09-12T13:38:05;22;;;17.8;;
74457;SDS011;62896;51.032;3.712;2023-09-12T13:41:25;22;;;17.8;;
74457;SDS011;62896;51.032;3.712;2023-09-12T13:44:45;22;;;17.8;;
74457;SDS011;62896;51.032;3.712;2023-09-12T13:48:05;22;;;17.8;;
74457;SDS011;62896;51.032;3.712;2023-09-12T13:51:25;20.1;;;16.3;;
74457;SDS011;62896;51.032;3.712;2023-09-12T13:54:45;20.1;;;16.3;;
74457;SDS011;62896;51.032;3.712;2023-09-12T13:58:05;20.1;;;16.3;;
74457;SDS011;62896;51.032;3.712;2023-09-12T14:01:25;20.1;;;16.3;;
74457;SDS011;62896;51.032;3.712;2023-09-12T14:04:45;20.1;;;16.3;;
74457;SDS011;62896;51.032;3.712;2023-09-12T14:08:05;20.1;;;16.3;;
74457;SDS011;62896;51.032;3.712;2023-09-12T14:11:25;20.1;;;16.3;;
74457;SDS011;62896;51.032;3.712;2023-09-12T14:14:45;22.4;;;17.7;;
74457;SDS011;62896;51.032;3.712;2023-09-12T14:18:05;22.4;;;17.7;;
74457;SDS011;62896;51.032;3.712;2023-09-12T14:21:25;22.4;;;17.7;;
74457;SDS011;62896;51.032;3.712;2023-09-12T14:24:45;22.4;;;17.7;;
74457;SDS011;62896;51.032;3.712;2023-09-12T14:28:05;22.4;;;17.7;;
74457;SDS011;62896;51.032;3.712;2023-09-12T14:31:25;22.4;;;17.7;;
74457;SDS011;62896;51.032;3.712;2023-09-12T14:34:45;22.4;;;17.7;;
74457;SDS011;62896;51.032;3.712;2023-09-12T14:38:05;22.4;;;17.7;;
74457;SDS011;62896;51.032;3.712;2023-09-12T14:41:25;19;;;14.5;;
74457;SDS011;62896;51.032;3.712;2023-09-12T14:44:45;19;;;14.5;;
74457;SDS011;62896;51.032;3.712;2023-09-12T14:48:05;19;;;14.5;;
74457;SDS011;62896;51.032;3.712;2023-09-12T14:51:25;19;;;14.5;;
74457;SDS011;62896;51.032;3.712;2023-09-12T14:54:45;19;;;14.5;;
74457;SDS011;62896;51.032;3.712;2023-09-12T14:58:05;19;;;14.5;;
74457;SDS011;62896;51.032;3.712;2023-09-12T15:01:25;19;;;14.5;;
74457;SDS011;62896;51.032;3.712;2023-09-12T15:04:45;19.6;;;15;;
74457;SDS011;62896;51.032;3.712;2023-09-12T15:08:05;19.6;;;15;;
74457;SDS011;62896;51.032;3.712;2023-09-12T15:11:25;19.6;;;15;;
74457;SDS011;62896;51.032;3.712;2023-09-12T15:14:45;19.6;;;15;;
74457;SDS011;62896;51.032;3.712;2023-09-12T15:18:05;19.6;;;15;;
74457;SDS011;62896;51.032;3.712;2023-09-12T15:21:25;19.6;;;15;;
74457;SDS011;62896;51.032;3.712;2023-09-12T15:24:45;19.6;;;15;;
74457;SDS011;62896;51.032;3.712;2023-09-12T15:28:05;19.6;;;15;;
74457;SDS011;62896;51.032;3.712;2023-09-12T15:31:25;20.7;;;16.1;;
74457;SDS011;62896;51.032;3.712;2023-09-12T15:34:45;20.7;;;16.1;;
74457;SDS011;62896;51.032;3.712;2023-09-12T15:38:05;20.7;;;16.1;;
74457;SDS011;62896;51.032;3.712;2023-09-12T15:41:25;20.7;;;16.1;;
74457;SDS011;62896;51.032;3.712;2023-09-12T15:44:45;20.7;;;16.1;;
74457;SDS011;62896;51.032;3.712;2023-09-12T15:48:05;20.7;;;16.1;;
74457;SDS011;62896;51.032;3.712;2023-09-12T15:51:25;20.7;;;16.1;;
74457;SDS011;62896;51.032;3.712;2023-09-12T15:54:45;16.9;;;14.1;;
74457;SDS011;62896;51.032;3.712;2023-09-12T15:58:05;16.9;;;14.1;;
74457;SDS011;62896;51.032;3.712;2023-09-12T16:01:25;16.9;;;14.1;;
74457;SDS011;62896;51.032;3.712;2023-09-12T16:04:45;16.9;;;14.1;;
74457;SDS011;62896;51.032;3.712;2023-09-12T16:08:05;16.9;;;14.1;;
74457;SDS011;62896;51.032;3.712;2023-09-12T16:11:25;16.9;;;14.1;;
74457;SDS011;62896;51.032;3.712;2023-09-12T16:14:45;16.9;;;14.1;;
74457;SDS011;62896;51.032;3.712;2023-09-12T16:18:05;16.9;;;14.1;;
74457;SDS011;62896;51.032;3.712;2023-09-12T16:21:25;17.3;;;14.5;;
74457;SDS011;62896;51.032;3.712;2023-09-12T16:24:45;17.3;;;14.5;;
74457;SDS011;62896;51.032;3.712;2023-09-12T16:28:05;17.3;;;14.5;;
74457;SDS011;62896;51.032;3.712;2023-09-12T16:31:25;17.3;;;14.5;;
74457;SDS011;62896;51.032;3.712;2023-09-12T16:34:45;17.3;;;14.5;;
74457;SDS011;62896;51.032;3.712;2023-09-12T16:38:05;17.3;;;14.5;;
74457;SDS011;62896;51.032;3.712;2023-09-12T16:41:25;17.3;;;14.5;;
74457;SDS011;62896;51.032;3.712;2023-09-12T16:44:45;15.7;;;12.5;;
74457;SDS011;62896;51.032;3.712;2023-09-12T16:48:05;15.7;;;12.5;;
74457;SDS011;62896;51.032;3.712;2023-09-12T16:51:25;15.7;;;12.5;;
74457;SDS011;62896;51.032;3.712;2023-09-12T16:54:45;15.7;;;12.5;;
74457;SDS011;62896;51.032;3.712;2023-09-12T16:58:05;15.7;;;12.5;;
74457;SDS011;62896;51.032;3.712;2023-09-12T17:01:25;15.7;;;12.5;;
74457;SDS011;62896;51.032;3.712;2023-09-12T17:04:45;15.7;;;12.5;;
74457;SDS011;62896;51.032;3.712;2023-09-12T17:08:05;15.7;;;12.5;;
74457;SDS011;62896;51.032;3.712;2023-09-12T17:11:25;27.7;;;20.2;;
74457;SDS011;62896;51.032;3.712;2023-09-12T17:14:45;27.7;;;20.2;;
74457;SDS011;62896;51.032;3.712;2023-09-12T17:18:05;27.7;;;20.2;;
74457;SDS011;62896;51.032;3.712;2023-09-12T17:21:25;27.7;;;20.2;;
74457;SDS011;62896;51.032;3.712;2023-09-12T17:24:45;27.7;;;20.2;;
74457;SDS011;62896;51.032;3.712;2023-09-12T17:28:05;27.7;;;20.2;;
74457;SDS011;62896;51.032;3.712;2023-09-12T17:31:25;27.7;;;20.2;;
74457;SDS011;62896;51.032;3.712;2023-09-12T17:34:45;24.8;;;19.3;;
74457;SDS011;62896;51.032;3.712;2023-09-12T17:38:05;24.8;;;19.3;;
74457;SDS011;62896;51.032;3.712;2023-09-12T17:41:25;24.8;;;19.3;;
74457;SDS011;62896;51.032;3.712;2023-09-12T17:44:45;24.8;;;19.3;;
74457;SDS011;62896;51.032;3.712;2023-09-12T17:48:05;24.8;;;19.3;;
74457;SDS011;62896;51.032;3.712;2023-09-12T17:51:25;24.8;;;19.3;;
74457;SDS011;62896;51.032;3.712;2023-09-12T17:54:45;24.8;;;19.3;;
74457;SDS011;62896;51.032;3.712;2023-09-12T17:58:05;24.8;;;19.3;;
74457;SDS011;62896;51.032;3.712;2023-09-12T18:01:25;24.8;;;19.1;;
74457;SDS011;62896;51.032;3.712;2023-09-12T18:04:45;24.8;;;19.1;;
74457;SDS011;62896;51.032;3.712;2023-09-12T18:08:05;24.8;;;19.1;;
74457;SDS011;62896;51.032;3.712;2023-09-12T18:11:25;24.8;;;19.1;;
74457;SDS011;62896;51.032;3.712;2023-09-12T18:14:45;24.8;;;19.1;;
74457;SDS011;62896;51.032;3.712;2023-09-12T18:18:05;24.8;;;19.1;;
74457;SDS011;62896;51.032;3.712;2023-09-12T18:21:25;24.8;;;19.1;;
74457;SDS011;62896;51.032;3.712;2023-09-12T18:24:45;12.8;;;10.5;;
74457;SDS011;62896;51.032;3.712;2023-09-12T18:28:05;12.8;;;10.5;;
74457;SDS011;62896;51.032;3.712;2023-09-12T18:31:25;12.8;;;10.5;;
74457;SDS011;62896;51.032;3.712;2023-09-12T18:34:45;12.8;;;10.5;;
74457;SDS011;62896;51.032;3.712;2023-09-12T18:38:05;12.8;;;10.5;;
74457;SDS011;62896;51.032;3.712;2023-09-12T18:41:25;12.8;;;10.5;;
74457;SDS011;62896;51.032;3.712;2023-09-12T18:44:45;12.8;;;10.5;;
74457;SDS011;62896;51.032;3.712;2023-09-12T18:48:05;12.8;;;10.5;;
74457;SDS011;62896;51.032;3.712;2023-09-12T18:51:25;11;;;9.2;;
74457;SDS011;62896;51.032;3.712;2023-09-12T18:54:45;11;;;9.2;;
74457;SDS011;62896;51.032;3.712;2023-09-12T18:58:05;11;;;9.2;;
74457;SDS011;62896;51.032;3.712;2023-09-12T19:01:25;11;;;9.2;;
74457;SDS011;62896;51.032;3.712;2023-09-12T19:04:45;11;;;9.2;;
74457;SDS011;62896;51.032;3.712;2023-09-12T19:08:05;11;;;9.2;;
74457;SDS011;62896;51.032;3.712;2023-09-12T19:11:25;11;;;9.2;;
74457;SDS011;62896;51.032;3.712;2023-09-12T19:14:45;18.7;;;15.2;;
74457;SDS011;62896;51.032;3.712;2023-09-12T19:18:05;18.7;;;15.2;;
74457;SDS011;62896;51.032;3.712;2023-09-12T19:21:25;18.7;;;15.2;;
74457;SDS011;62896;51.032;3.712;2023-09-12T19:24:46;18.7;;;15.2;;
74457;SDS011;62896;51.032;3.712;2023-09-12T19:28:05;18.7;;;15.2;;
74457;SDS011;62896;51.032;3.712;2023-09-12T19:31:25;18.7;;;15.2;;
74457;SDS011;62896;51.032;3.712;2023-09-12T19:34:45;18.7;;;15.2;;
74457;SDS011;62896;51.032;3.712;2023-09-12T19:38:05;18.7;;;15.2;;
74457;SDS011;62896;51.032;3.712;2023-09-12T19:41:25;25.6;;;19.3;;
74457;SDS011;62896;51.032;3.712;2023-09-12T19:44:45;25.6;;;19.3;;
74457;SDS011;62896;51.032;3.712;2023-09-12T19:48:05;25.6;;;19.3;;
74457;SDS011;62896;51.032;3.712;2023-09-12T19:51:25;25.6;;;19.3;;
74457;SDS011;62896;51.032;3.712;2023-09-12T19:54:45;25.6;;;19.3;;
74457;SDS011;62896;51.032;3.712;2023-09-12T19:58:05;25.6;;;19.3;;
74457;SDS011;62896;51.032;3.712;2023-09-12T20:01:25;25.6;;;19.3;;
74457;SDS011;62896;51.032;3.712;2023-09-12T20:04:45;26.6;;;19.5;;
74457;SDS011;62896;51.032;3.712;2023-09-12T20:08:05;26.6;;;19.5;;
74457;SDS011;62896;51.032;3.712;2023-09-12T20:11:25;26.6;;;19.5;;
74457;SDS011;62896;51.032;3.712;2023-09-12T20:14:45;26.6;;;19.5;;
74457;SDS011;62896;51.032;3.712;2023-09-12T20:18:05;26.6;;;19.5;;
74457;SDS011;62896;51.032;3.712;2023-09-12T20:21:25;26.6;;;19.5;;
74457;SDS011;62896;51.032;3.712;2023-09-12T20:24:45;26.6;;;19.5;;
74457;SDS011;62896;51.032;3.712;2023-09-12T20:28:05;26.6;;;19.5;;
74457;SDS011;62896;51.032;3.712;2023-09-12T20:31:25;29.1;;;20.6;;
74457;SDS011;62896;51.032;3.712;2023-09-12T20:34:45;29.1;;;20.6;;
74457;SDS011;62896;51.032;3.712;2023-09-12T20:38:05;29.1;;;20.6;;
74457;SDS011;62896;51.032;3.712;2023-09-12T20:41:25;29.1;;;20.6;;
74457;SDS011;62896;51.032;3.712;2023-09-12T20:44:45;29.1;;;20.6;;
74457;SDS011;62896;51.032;3.712;2023-09-12T20:48:05;29.1;;;20.6;;
74457;SDS011;62896;51.032;3.712;2023-09-12T20:51:25;29.1;;;20.6;;
74457;SDS011;62896;51.032;3.712;2023-09-12T20:54:45;32.2;;;23;;